createdAt,value
2022-10-21T00:01:16.167Z,13.42
2022-10-21T00:03:43.595Z,13.20
2022-10-21T00:06:11.481Z,13.02
2022-10-21T00:08:39.127Z,13.17
2022-10-21T00:11:09.103Z,13.24
2022-10-21T00:13:40.259Z,13.35
2022-10-21T00:16:14.348Z,13.22
2022-10-21T00:18:46.012Z,13.14
2022-10-21T00:21:22.988Z,13.31
2022-10-21T00:23:50.224Z,13.05
2022-10-21T00:26:18.998Z,12.83
2022-10-21T00:28:48.333Z,12.89
2022-10-21T00:31:16.268Z,13.02
2022-10-21T00:33:49.072Z,13.01
2022-10-21T00:36:18.478Z,13.00
2022-10-21T00:38:50.429Z,12.71
2022-10-21T00:41:19.553Z,12.92
2022-10-21T00:44:14.405Z,13.02
2022-10-21T00:46:49.552Z,13.34
2022-10-21T00:49:51.760Z,12.90
2022-10-21T00:52:26.158Z,13.03
2022-10-21T00:54:56.315Z,13.00
2022-10-21T00:57:28.570Z,12.97
2022-10-21T01:00:02.097Z,12.91
2022-10-21T01:02:32.267Z,12.80
2022-10-21T01:05:03.671Z,12.76
2022-10-21T01:07:37.580Z,12.95
2022-10-21T01:10:08.253Z,12.79
2022-10-21T01:12:47.272Z,12.91
2022-10-21T01:15:53.740Z,12.97
2022-10-21T01:18:28.410Z,12.84
2022-10-21T01:21:13.982Z,12.82
2022-10-21T01:24:19.748Z,12.85
2022-10-21T01:27:21.122Z,12.44
2022-10-21T01:30:31.845Z,12.70
2022-10-21T01:33:08.044Z,12.73
2022-10-21T01:35:51.560Z,12.89
2022-10-21T01:38:39.403Z,12.94
2022-10-21T01:41:48.921Z,12.91
2022-10-21T01:44:29.011Z,12.97
2022-10-21T01:47:24.290Z,12.89
2022-10-21T01:50:08.446Z,12.96
2022-10-21T01:52:40.454Z,12.86
2022-10-21T01:55:13.961Z,12.89
2022-10-21T01:57:58.954Z,12.70
2022-10-21T02:03:03.393Z,12.69
2022-10-21T02:05:32.812Z,12.61
2022-10-21T02:07:59.790Z,12.41
2022-10-21T02:10:35.444Z,12.61
2022-10-21T02:13:12.403Z,12.84
2022-10-21T02:15:45.276Z,12.73
2022-10-21T02:18:25.020Z,12.58
2022-10-21T02:20:59.456Z,12.60
2022-10-21T02:23:51.409Z,12.91
2022-10-21T02:26:21.190Z,12.66
2022-10-21T02:28:51.253Z,12.84
2022-10-21T02:31:51.624Z,13.05
2022-10-21T02:34:47.207Z,12.92
2022-10-21T02:37:29.839Z,13.12
2022-10-21T02:40:05.641Z,13.24
2022-10-21T02:42:41.177Z,12.78
2022-10-21T02:45:10.171Z,12.83
2022-10-21T02:47:43.380Z,12.79
2022-10-21T02:50:10.627Z,12.77
2022-10-21T02:52:40.626Z,12.54
2022-10-21T02:55:08.169Z,12.44
2022-10-21T02:57:35.382Z,12.29
2022-10-21T03:00:02.517Z,12.49
2022-10-21T03:02:33.995Z,12.74
2022-10-21T03:05:03.734Z,12.88
2022-10-21T03:07:30.921Z,12.85
2022-10-21T03:10:01.001Z,12.70
2022-10-21T03:12:28.183Z,12.66
2022-10-21T03:14:57.335Z,12.72
2022-10-21T03:17:25.404Z,12.76
2022-10-21T03:19:52.501Z,12.84
2022-10-21T03:22:19.356Z,12.83
2022-10-21T03:24:48.342Z,12.65
2022-10-21T03:27:15.184Z,12.82
2022-10-21T03:29:44.513Z,12.87
2022-10-21T03:32:15.863Z,12.81
2022-10-21T03:34:45.215Z,12.87
2022-10-21T03:37:14.334Z,12.69
2022-10-21T03:39:41.197Z,12.90
2022-10-21T03:42:08.042Z,12.86
2022-10-21T03:44:37.419Z,12.77
2022-10-21T03:47:07.142Z,12.87
2022-10-21T03:52:06.252Z,13.06
2022-10-21T03:54:37.977Z,13.22
2022-10-21T03:57:05.229Z,13.31
2022-10-21T03:59:35.939Z,13.31
2022-10-21T04:02:02.912Z,13.22
2022-10-21T04:04:32.384Z,13.15
2022-10-21T04:06:59.257Z,12.87
2022-10-21T04:09:29.037Z,12.80
2022-10-21T04:11:55.865Z,12.70
2022-10-21T04:14:27.406Z,12.73
2022-10-21T04:17:07.363Z,12.59
2022-10-21T04:19:35.038Z,12.57
2022-10-21T04:22:01.871Z,12.57
2022-10-21T04:24:33.331Z,12.64
2022-10-21T04:27:02.694Z,12.62
2022-10-21T04:29:31.994Z,12.55
2022-10-21T04:32:01.142Z,12.67
2022-10-21T04:34:32.573Z,12.50
2022-10-21T04:37:05.205Z,12.28
2022-10-21T04:39:35.286Z,12.34
2022-10-21T04:42:05.155Z,12.34
2022-10-21T04:44:32.145Z,12.55
2022-10-21T04:47:04.483Z,12.56
2022-10-21T04:49:32.441Z,12.59
2022-10-21T04:51:59.288Z,12.73
2022-10-21T04:54:26.121Z,12.61
2022-10-21T04:56:52.963Z,12.68
2022-10-21T04:59:21.885Z,12.56
2022-10-21T05:01:48.792Z,12.60
2022-10-21T05:04:15.677Z,12.66
2022-10-21T05:06:42.595Z,12.53
2022-10-21T05:09:10.207Z,12.59
2022-10-21T05:11:39.599Z,12.66
2022-10-21T05:14:06.425Z,12.63
2022-10-21T05:16:33.256Z,12.54
2022-10-21T05:19:00.398Z,12.51
2022-10-21T05:21:32.723Z,12.65
2022-10-21T05:23:59.625Z,12.56
2022-10-21T05:26:29.151Z,12.60
2022-10-21T05:28:56.063Z,12.57
2022-10-21T05:31:22.927Z,12.67
2022-10-21T05:33:49.851Z,12.54
2022-10-21T05:36:18.516Z,12.34
2022-10-21T05:38:47.434Z,12.43
2022-10-21T05:41:14.367Z,12.41
2022-10-21T05:43:44.094Z,12.30
2022-10-21T05:46:16.041Z,12.36
2022-10-21T05:48:45.503Z,12.34
2022-10-21T05:51:14.565Z,12.34
2022-10-21T05:53:44.378Z,12.14
2022-10-21T05:56:13.965Z,11.91
2022-10-21T05:58:42.954Z,11.91
2022-10-21T06:01:09.858Z,12.06
2022-10-21T06:03:36.946Z,12.36
2022-10-21T06:06:08.031Z,12.37
2022-10-21T06:08:42.509Z,12.52
2022-10-21T06:11:14.440Z,12.68
2022-10-21T06:13:45.808Z,12.63
2022-10-21T06:16:14.143Z,12.91
2022-10-21T06:18:44.262Z,12.99
2022-10-21T06:21:14.182Z,13.08
2022-10-21T06:23:43.579Z,12.99
2022-10-21T06:26:18.764Z,12.90
2022-10-21T06:28:47.865Z,12.93
2022-10-21T06:31:23.555Z,13.07
2022-10-21T06:33:50.438Z,13.08
2022-10-21T06:36:23.389Z,13.00
2022-10-21T06:38:50.288Z,13.09
2022-10-21T06:41:18.659Z,13.30
2022-10-21T06:43:49.805Z,13.31
2022-10-21T06:46:21.688Z,13.21
2022-10-21T06:48:49.602Z,13.33
2022-10-21T06:51:24.909Z,13.20
2022-10-21T06:53:57.347Z,13.31
2022-10-21T06:56:31.808Z,13.66
2022-10-21T06:58:59.108Z,13.98
2022-10-21T07:01:41.016Z,14.10
2022-10-21T07:04:15.169Z,14.21
2022-10-21T07:06:46.102Z,14.21
2022-10-21T07:09:13.318Z,14.11
2022-10-21T07:11:44.819Z,13.95
2022-10-21T07:14:14.256Z,14.08
2022-10-21T07:16:41.140Z,14.02
2022-10-21T07:19:10.270Z,13.84
2022-10-21T07:21:39.285Z,14.09
2022-10-21T07:24:10.010Z,14.28
2022-10-21T07:26:43.619Z,14.25
2022-10-21T07:29:10.481Z,13.93
2022-10-21T07:31:42.530Z,14.20
2022-10-21T07:34:14.080Z,14.52
2022-10-21T07:36:52.689Z,15.01
2022-10-21T07:39:24.192Z,15.30
2022-10-21T07:41:54.433Z,15.54
2022-10-21T07:44:30.121Z,15.66
2022-10-21T07:46:59.231Z,16.18
2022-10-21T07:49:26.087Z,16.44
2022-10-21T07:51:53.853Z,16.37
2022-10-21T07:54:20.969Z,16.20
2022-10-21T07:56:57.028Z,15.84
2022-10-21T07:59:25.115Z,15.50
2022-10-21T08:01:57.751Z,15.07
2022-10-21T08:04:29.844Z,15.18
2022-10-21T08:06:57.310Z,15.07
2022-10-21T08:09:26.804Z,14.91
2022-10-21T08:11:53.696Z,15.05
2022-10-21T08:14:20.581Z,14.89
2022-10-21T08:16:52.956Z,15.44
2022-10-21T08:19:27.275Z,15.24
2022-10-21T08:21:54.470Z,15.28
2022-10-21T08:24:23.650Z,15.18
2022-10-21T08:26:51.607Z,15.08
2022-10-21T08:29:18.549Z,14.88
2022-10-21T08:31:47.969Z,15.12
2022-10-21T08:34:14.914Z,15.12
2022-10-21T08:36:46.420Z,15.29
2022-10-21T08:39:13.197Z,15.34
2022-10-21T08:42:10.934Z,15.44
2022-10-21T08:44:44.532Z,15.48
2022-10-21T08:47:35.547Z,15.31
2022-10-21T08:50:11.159Z,15.41
2022-10-21T08:52:49.225Z,15.77
2022-10-21T08:55:34.387Z,15.96
2022-10-21T08:58:05.278Z,16.07
2022-10-21T09:00:49.093Z,16.05
2022-10-21T09:03:37.018Z,16.15
2022-10-21T09:06:15.241Z,15.88
2022-10-21T09:08:57.476Z,16.13
2022-10-21T09:11:51.704Z,16.33
2022-10-21T09:14:36.487Z,16.58
2022-10-21T09:17:41.308Z,16.56
2022-10-21T09:20:29.984Z,16.80
2022-10-21T09:23:13.400Z,16.76
2022-10-21T09:26:18.801Z,16.36
2022-10-21T09:28:48.960Z,17.26
2022-10-21T09:31:21.431Z,18.12
2022-10-21T09:33:59.777Z,18.35
2022-10-21T09:36:35.258Z,18.09
2022-10-21T09:39:28.590Z,18.07
2022-10-21T09:42:11.378Z,18.26
2022-10-21T09:44:42.897Z,18.08
2022-10-21T09:47:23.581Z,18.12
2022-10-21T09:50:08.505Z,17.94
2022-10-21T09:52:37.806Z,18.13
2022-10-21T09:55:05.554Z,18.59
2022-10-21T09:57:46.350Z,18.74
2022-10-21T10:00:14.116Z,19.11
2022-10-21T10:02:44.299Z,19.28
2022-10-21T10:05:49.765Z,19.38
2022-10-21T10:08:38.191Z,19.55
2022-10-21T10:11:12.945Z,20.01
2022-10-21T10:13:52.204Z,20.87
2022-10-21T10:16:28.500Z,21.38
2022-10-21T10:19:28.309Z,22.18
2022-10-21T10:22:17.548Z,22.19
2022-10-21T10:24:45.182Z,21.71
2022-10-21T10:27:26.617Z,22.46
2022-10-21T10:29:56.674Z,23.96
2022-10-21T10:32:33.008Z,24.55
2022-10-21T10:35:04.932Z,25.66
2022-10-21T10:37:37.530Z,26.92
2022-10-21T10:40:24.582Z,27.92
2022-10-21T10:43:15.969Z,28.18
2022-10-21T10:46:04.804Z,27.98
2022-10-21T10:48:53.318Z,26.24
2022-10-21T10:51:35.907Z,25.80
2022-10-21T10:54:21.923Z,24.52
2022-10-21T10:56:59.456Z,24.35
2022-10-21T10:59:40.408Z,23.79
2022-10-21T11:02:10.174Z,23.40
2022-10-21T11:05:08.103Z,23.76
2022-10-21T11:07:44.256Z,23.83
2022-10-21T11:10:47.393Z,24.04
2022-10-21T11:13:23.347Z,24.49
2022-10-21T11:16:31.425Z,23.68
2022-10-21T11:19:15.290Z,22.92
2022-10-21T11:21:51.790Z,23.08
2022-10-21T11:24:52.056Z,23.06
2022-10-21T11:27:35.343Z,22.81
2022-10-21T11:30:17.643Z,22.88
2022-10-21T11:33:10.934Z,23.46
2022-10-21T11:36:01.834Z,23.81
2022-10-21T11:39:07.798Z,24.43
2022-10-21T11:42:16.508Z,24.08
2022-10-21T11:45:02.908Z,24.97
2022-10-21T11:47:52.130Z,23.94
2022-10-21T11:50:39.703Z,24.08
2022-10-21T11:53:36.750Z,24.16
2022-10-21T11:56:29.916Z,24.80
2022-10-21T11:59:21.070Z,24.50
2022-10-21T12:02:02.894Z,23.97
2022-10-21T12:04:34.722Z,24.34
2022-10-21T12:07:22.577Z,25.33
2022-10-21T12:09:51.989Z,25.75
2022-10-21T12:12:25.712Z,26.34
2022-10-21T12:15:00.166Z,25.21
2022-10-21T12:17:27.110Z,24.95
2022-10-21T12:20:00.010Z,24.37
2022-10-21T12:22:29.573Z,23.37
2022-10-21T12:25:14.540Z,22.86
2022-10-21T12:28:05.973Z,22.45
2022-10-21T12:31:06.180Z,21.85
2022-10-21T12:33:45.107Z,21.72
2022-10-21T12:36:43.492Z,22.22
2022-10-21T12:39:33.064Z,22.54
2022-10-21T12:42:06.948Z,22.78
2022-10-21T12:44:36.835Z,22.74
2022-10-21T12:47:43.757Z,22.63
2022-10-21T12:50:33.367Z,22.70
2022-10-21T12:53:42.912Z,22.62
2022-10-21T12:56:32.216Z,22.58
2022-10-21T12:59:06.804Z,22.35
2022-10-21T13:01:47.920Z,22.91
2022-10-21T13:04:34.783Z,22.57
2022-10-21T13:07:13.419Z,22.58
2022-10-21T13:09:46.343Z,21.89
2022-10-21T13:12:23.849Z,21.41
2022-10-21T13:14:55.745Z,21.57
2022-10-21T13:17:22.563Z,21.27
2022-10-21T13:19:53.894Z,21.56
2022-10-21T13:22:37.999Z,21.32
2022-10-21T13:25:16.990Z,20.87
2022-10-21T13:27:51.676Z,20.61
2022-10-21T13:30:36.802Z,20.12
2022-10-21T13:33:13.665Z,20.25
2022-10-21T13:36:14.830Z,20.33
2022-10-21T13:38:54.455Z,20.08
2022-10-21T13:41:35.834Z,20.27
2022-10-21T13:44:07.413Z,20.08
2022-10-21T13:46:43.670Z,19.95
2022-10-21T13:49:33.178Z,19.94
2022-10-21T13:52:12.599Z,19.84
2022-10-21T13:57:11.370Z,20.13
2022-10-21T13:59:38.227Z,20.08
2022-10-21T14:02:05.245Z,20.29
2022-10-21T14:04:42.948Z,20.21
2022-10-21T14:07:19.171Z,19.82
2022-10-21T14:09:48.174Z,20.08
2022-10-21T14:12:38.191Z,20.18
2022-10-21T14:15:21.890Z,20.19
2022-10-21T14:17:55.333Z,20.38
2022-10-21T14:20:33.993Z,20.05
2022-10-21T14:23:07.076Z,20.11
2022-10-21T14:25:34.878Z,20.07
2022-10-21T14:28:05.565Z,20.29
2022-10-21T14:30:34.156Z,20.47
2022-10-21T14:33:04.995Z,20.13
2022-10-21T14:35:34.292Z,20.34
2022-10-21T14:38:04.044Z,20.33
2022-10-21T14:40:35.831Z,20.31
2022-10-21T14:43:17.668Z,20.14
2022-10-21T14:45:51.335Z,20.14
2022-10-21T14:48:38.450Z,20.10
2022-10-21T14:51:17.840Z,20.01
2022-10-21T14:54:08.280Z,20.19
2022-10-21T14:56:41.517Z,20.45
2022-10-21T14:59:38.288Z,20.19
2022-10-21T15:02:27.565Z,20.10
2022-10-21T15:04:59.704Z,20.27
2022-10-21T15:07:39.467Z,20.17
2022-10-21T15:10:10.107Z,19.87
2022-10-21T15:12:45.743Z,19.96
2022-10-21T15:15:40.334Z,20.04
2022-10-21T15:18:43.012Z,20.05
2022-10-21T15:21:11.674Z,20.15
2022-10-21T15:23:44.844Z,20.06
2022-10-21T15:26:23.986Z,19.92
2022-10-21T15:29:26.514Z,19.71
2022-10-21T15:31:56.831Z,19.68
2022-10-21T15:34:27.536Z,19.65
2022-10-21T15:36:54.405Z,19.68
2022-10-21T15:39:21.449Z,19.70
2022-10-21T15:41:54.879Z,19.67
2022-10-21T15:44:31.661Z,19.62
2022-10-21T15:47:08.750Z,19.50
2022-10-21T15:49:43.163Z,19.51
2022-10-21T15:52:14.535Z,19.50
2022-10-21T15:54:42.263Z,19.28
2022-10-21T15:57:19.862Z,19.20
2022-10-21T15:59:48.038Z,19.16
2022-10-21T16:02:17.802Z,19.10
2022-10-21T16:04:46.516Z,19.17
2022-10-21T16:07:28.940Z,19.03
2022-10-21T16:09:56.902Z,19.09
2022-10-21T16:12:30.528Z,19.24
2022-10-21T16:14:57.360Z,19.08
2022-10-21T16:17:28.489Z,19.24
2022-10-21T16:19:55.367Z,19.30
2022-10-21T16:22:24.055Z,19.19
2022-10-21T16:24:53.973Z,19.37
2022-10-21T16:27:43.455Z,19.21
2022-10-21T16:30:22.183Z,19.15
2022-10-21T16:32:50.263Z,19.03
2022-10-21T16:35:21.096Z,19.12
2022-10-21T16:37:50.818Z,19.20
2022-10-21T16:40:23.743Z,19.21
2022-10-21T16:42:56.366Z,19.20
2022-10-21T16:45:28.283Z,19.11
2022-10-21T16:48:01.896Z,18.78
2022-10-21T16:50:40.805Z,19.07
2022-10-21T16:53:13.944Z,19.07
2022-10-21T16:55:43.750Z,19.07
2022-10-21T16:58:10.931Z,19.04
2022-10-21T17:00:43.166Z,18.88
2022-10-21T17:03:15.978Z,18.83
2022-10-21T17:05:42.867Z,18.85
2022-10-21T17:08:09.876Z,18.92
2022-10-21T17:10:36.939Z,19.01
2022-10-21T17:13:04.049Z,18.82
2022-10-21T17:15:31.096Z,18.83
2022-10-21T17:17:59.230Z,18.84
2022-10-21T17:20:32.788Z,19.01
2022-10-21T17:23:07.444Z,19.01
2022-10-21T17:25:39.376Z,18.98
2022-10-21T17:28:06.960Z,18.75
2022-10-21T17:30:33.908Z,18.82
2022-10-21T17:33:00.784Z,18.81
2022-10-21T17:35:29.937Z,18.96
2022-10-21T17:37:56.769Z,18.97
2022-10-21T17:40:29.752Z,18.90
2022-10-21T17:42:58.383Z,18.76
2022-10-21T17:45:25.754Z,18.77
2022-10-21T17:47:55.053Z,18.81
2022-10-21T17:50:25.896Z,18.85
2022-10-21T17:52:54.757Z,18.88
2022-10-21T17:55:22.197Z,18.68
2022-10-21T17:57:49.240Z,18.42
2022-10-21T18:00:16.271Z,18.33
2022-10-21T18:02:45.733Z,18.21
2022-10-21T18:05:14.747Z,18.60
2022-10-21T18:07:41.885Z,18.87
2022-10-21T18:10:11.347Z,18.89
2022-10-21T18:12:38.438Z,18.94
2022-10-21T18:15:06.050Z,18.97
2022-10-21T18:17:37.205Z,18.84
2022-10-21T18:20:04.879Z,18.97
2022-10-21T18:22:35.468Z,19.01
2022-10-21T18:25:02.300Z,18.84
2022-10-21T18:27:31.471Z,18.81
2022-10-21T18:30:00.679Z,18.82
2022-10-21T18:32:27.520Z,18.88
2022-10-21T18:34:58.978Z,18.87
2022-10-21T18:37:28.463Z,18.96
2022-10-21T18:39:59.021Z,18.81
2022-10-21T18:42:26.073Z,18.60
2022-10-21T18:44:52.865Z,18.40
2022-10-21T18:47:19.752Z,18.55
2022-10-21T18:49:50.711Z,18.54
2022-10-21T18:52:19.742Z,18.60
2022-10-21T18:54:49.571Z,18.55
2022-10-21T18:57:16.409Z,18.23
2022-10-21T18:59:43.223Z,18.33
2022-10-21T19:02:20.602Z,18.45
2022-10-21T19:04:47.919Z,18.39
2022-10-21T19:07:17.863Z,18.15
2022-10-21T19:09:45.020Z,18.27
2022-10-21T19:12:15.542Z,18.40
2022-10-21T19:14:44.275Z,18.48
2022-10-21T19:17:12.872Z,18.37
2022-10-21T19:19:39.686Z,18.40
2022-10-21T19:22:08.780Z,18.34
2022-10-21T19:24:35.975Z,18.45
2022-10-21T19:27:02.801Z,18.38
2022-10-21T19:29:32.225Z,18.40
2022-10-21T19:32:02.196Z,18.34
2022-10-21T19:34:31.546Z,18.18
2022-10-21T19:36:58.345Z,18.24
2022-10-21T19:39:27.314Z,18.23
2022-10-21T19:41:54.176Z,18.22
2022-10-21T19:44:21.214Z,18.07
2022-10-21T19:46:48.056Z,18.23
2022-10-21T19:49:17.403Z,18.11
2022-10-21T19:51:47.135Z,18.15
2022-10-21T19:54:14.303Z,18.12
2022-10-21T19:56:43.893Z,18.26
2022-10-21T19:59:13.774Z,18.19
2022-10-21T20:01:43.217Z,18.26
2022-10-21T20:04:12.597Z,18.32
2022-10-21T20:06:43.157Z,18.51
2022-10-21T20:09:13.040Z,18.53
2022-10-21T20:11:44.032Z,18.36
2022-10-21T20:14:13.446Z,18.21
2022-10-21T20:16:42.265Z,18.34
2022-10-21T20:19:12.814Z,18.29
2022-10-21T20:21:46.160Z,18.24
2022-10-21T20:24:17.010Z,18.23
2022-10-21T20:26:45.493Z,18.21
2022-10-21T20:29:15.449Z,18.11
2022-10-21T20:31:45.093Z,18.22
2022-10-21T20:34:16.266Z,18.27
2022-10-21T20:36:43.125Z,18.00
2022-10-21T20:39:11.231Z,18.01
2022-10-21T20:41:38.584Z,18.05
2022-10-21T20:44:12.227Z,18.09
2022-10-21T20:46:39.070Z,18.12
2022-10-21T20:49:12.996Z,18.16
2022-10-21T20:51:49.668Z,18.15
2022-10-21T20:54:28.052Z,18.21
2022-10-21T20:56:54.997Z,18.07
2022-10-21T20:59:28.976Z,18.04
2022-10-21T21:01:55.924Z,18.07
2022-10-21T21:04:25.214Z,18.02
2022-10-21T21:06:52.323Z,18.01
2022-10-21T21:12:10.269Z,17.91
2022-10-21T21:14:40.026Z,17.86
2022-10-21T21:17:07.401Z,17.82
2022-10-21T21:19:34.219Z,17.69
2022-10-21T21:22:01.209Z,17.57
2022-10-21T21:24:31.300Z,17.48
2022-10-21T21:27:00.624Z,17.48
2022-10-21T21:29:27.637Z,17.64
2022-10-21T21:31:56.543Z,17.63
2022-10-21T21:34:25.549Z,17.66
2022-10-21T21:36:52.372Z,17.70
2022-10-21T21:39:25.291Z,17.68
2022-10-21T21:41:52.167Z,17.52
2022-10-21T21:44:21.942Z,17.37
2022-10-21T21:46:50.966Z,17.19
2022-10-21T21:49:17.774Z,17.31
2022-10-21T21:51:46.366Z,17.26
2022-10-21T21:54:13.215Z,17.12
2022-10-21T21:56:40.079Z,17.20
2022-10-21T21:59:09.168Z,17.26
2022-10-21T22:01:36.782Z,17.30
2022-10-21T22:04:06.034Z,17.25
2022-10-21T22:06:36.942Z,17.38
2022-10-21T22:09:13.238Z,17.05
2022-10-21T22:11:40.129Z,17.18
2022-10-21T22:14:11.492Z,17.11
2022-10-21T22:16:40.980Z,17.21
2022-10-21T22:19:10.194Z,17.29
2022-10-21T22:21:39.570Z,17.36
2022-10-21T22:24:08.876Z,17.45
2022-10-21T22:26:35.688Z,17.57
2022-10-21T22:29:02.466Z,17.50
2022-10-21T22:31:34.566Z,17.48
2022-10-21T22:34:06.511Z,17.39
2022-10-21T22:36:36.084Z,17.26
2022-10-21T22:39:05.900Z,17.25
2022-10-21T22:41:34.798Z,17.29
2022-10-21T22:44:06.319Z,17.24
2022-10-21T22:46:35.546Z,17.25
2022-10-21T22:49:09.758Z,17.23
2022-10-21T22:51:39.081Z,17.33
2022-10-21T22:54:19.274Z,17.24
2022-10-21T22:56:57.731Z,17.14
2022-10-21T22:59:24.518Z,16.84
2022-10-21T23:01:53.735Z,16.85
2022-10-21T23:04:20.581Z,16.81
2022-10-21T23:06:49.888Z,16.82
2022-10-21T23:09:16.831Z,16.85
2022-10-21T23:11:44.222Z,16.90
2022-10-21T23:14:11.269Z,17.00
2022-10-21T23:16:42.341Z,17.04
2022-10-21T23:19:09.851Z,17.17
2022-10-21T23:21:39.807Z,17.35
2022-10-21T23:24:07.116Z,17.48
2022-10-21T23:26:35.535Z,17.44
2022-10-21T23:29:02.541Z,17.57
2022-10-21T23:31:29.362Z,17.58
2022-10-21T23:33:56.244Z,17.57
2022-10-21T23:36:27.874Z,17.68
2022-10-21T23:38:56.611Z,17.56
2022-10-21T23:41:23.769Z,17.45
2022-10-21T23:43:52.881Z,17.38
2022-10-21T23:46:22.612Z,17.33
2022-10-21T23:48:51.950Z,17.34
2022-10-21T23:51:19.130Z,17.46
2022-10-21T23:53:45.965Z,17.58
2022-10-21T23:56:13.653Z,17.62
2022-10-21T23:58:40.481Z,17.50
